createdAt,value
2023-05-18T00:00:35.356Z,1.27
2023-05-18T00:05:36.915Z,1.42
2023-05-18T00:10:38.767Z,1.55
2023-05-18T00:15:40.389Z,1.08
2023-05-18T00:20:43.713Z,1.40
2023-05-18T00:25:45.672Z,1.20
2023-05-18T00:30:47.203Z,1.42
2023-05-18T00:35:48.750Z,1.67
2023-05-18T00:40:50.450Z,1.30
2023-05-18T00:45:52.049Z,1.23
2023-05-18T00:50:53.866Z,1.67
2023-05-18T00:55:55.622Z,1.45
2023-05-18T01:00:57.338Z,0.90
2023-05-18T01:05:59.005Z,1.50
2023-05-18T01:11:21.963Z,1.48
2023-05-18T01:16:28.426Z,1.45
2023-05-18T01:21:51.751Z,1.08
2023-05-18T01:26:57.564Z,1.40
2023-05-18T01:31:59.132Z,1.15
2023-05-18T01:37:00.683Z,1.38
2023-05-18T01:42:06.435Z,1.35
2023-05-18T01:47:13.084Z,1.00
2023-05-18T01:52:24.727Z,1.05
2023-05-18T01:57:27.874Z,1.58
2023-05-18T02:02:29.543Z,1.60
2023-05-18T02:07:31.209Z,1.55
2023-05-18T02:12:32.786Z,1.10
2023-05-18T02:17:38.019Z,1.55
2023-05-18T02:22:39.728Z,1.63
2023-05-18T02:27:41.732Z,1.90
2023-05-18T02:32:46.891Z,1.48
2023-05-18T02:37:50.013Z,1.40
2023-05-18T02:42:51.606Z,1.67
2023-05-18T02:47:53.164Z,1.70
2023-05-18T02:52:55.949Z,1.23
2023-05-18T02:57:57.561Z,1.40
2023-05-18T03:03:00.537Z,1.30
2023-05-18T03:08:02.475Z,1.13
2023-05-18T03:13:04.075Z,1.08
2023-05-18T03:18:05.787Z,1.35
2023-05-18T03:23:07.417Z,1.20
2023-05-18T03:28:08.958Z,1.20
2023-05-18T03:33:10.548Z,1.08
2023-05-18T03:38:12.117Z,1.52
2023-05-18T03:43:13.649Z,1.67
2023-05-18T03:48:15.197Z,1.20
2023-05-18T03:53:21.423Z,1.80
2023-05-18T03:58:23.412Z,1.40
2023-05-18T04:03:27.098Z,1.20
2023-05-18T04:08:30.321Z,1.40
2023-05-18T04:13:31.978Z,1.30
2023-05-18T04:18:33.566Z,1.33
2023-05-18T04:23:39.067Z,1.63
2023-05-18T04:28:43.174Z,1.80
2023-05-18T04:33:47.341Z,1.83
2023-05-18T04:38:50.752Z,1.30
2023-05-18T04:43:52.628Z,1.17
2023-05-18T04:48:57.891Z,1.30
2023-05-18T04:53:59.421Z,1.20
2023-05-18T04:59:01.894Z,1.60
2023-05-18T05:04:03.865Z,1.73
2023-05-18T05:09:05.536Z,1.27
2023-05-18T05:14:07.214Z,1.13
2023-05-18T05:19:08.782Z,1.52
2023-05-18T05:24:10.371Z,1.40
2023-05-18T05:29:11.962Z,1.40
2023-05-18T05:34:13.581Z,1.30
2023-05-18T05:39:15.157Z,1.20
2023-05-18T05:44:16.704Z,1.23
2023-05-18T05:49:18.228Z,1.10
2023-05-18T05:54:19.754Z,1.95
2023-05-18T05:59:22.470Z,1.58
2023-05-18T06:09:25.479Z,1.13
2023-05-18T06:14:27.012Z,1.50
2023-05-18T06:19:28.550Z,1.02
2023-05-18T06:24:30.098Z,1.15
2023-05-18T06:29:31.657Z,1.50
2023-05-18T06:34:33.212Z,1.35
2023-05-18T06:39:34.738Z,1.30
2023-05-18T06:44:36.298Z,1.92
2023-05-18T06:49:37.833Z,1.40
2023-05-18T06:54:39.368Z,1.40
2023-05-18T06:59:41.104Z,2.00
2023-05-18T07:04:42.809Z,1.90
2023-05-18T07:09:45.678Z,1.20
2023-05-18T07:14:47.263Z,1.20
2023-05-18T07:19:48.824Z,1.42
2023-05-18T07:24:50.345Z,1.27
2023-05-18T07:29:51.855Z,1.60
2023-05-18T07:34:53.537Z,1.50
2023-05-18T07:39:55.047Z,1.40
2023-05-18T07:44:56.555Z,1.40
2023-05-18T07:49:58.074Z,1.20
2023-05-18T07:55:00.025Z,1.50
2023-05-18T08:00:01.652Z,1.33
2023-05-18T08:05:04.000Z,1.33
2023-05-18T08:10:05.762Z,1.65
2023-05-18T08:15:09.948Z,1.70
2023-05-18T08:20:11.875Z,1.60
2023-05-18T08:25:13.429Z,1.40
2023-05-18T08:30:15.069Z,1.50
2023-05-18T08:35:17.539Z,1.20
2023-05-18T08:45:35.304Z,1.83
2023-05-18T08:50:36.838Z,1.92
2023-05-18T08:55:38.476Z,1.90
2023-05-18T09:00:40.011Z,2.00
2023-05-18T09:05:42.026Z,1.30
2023-05-18T09:10:43.559Z,1.45
2023-05-18T09:15:45.124Z,1.23
2023-05-18T09:20:46.691Z,1.30
2023-05-18T09:25:50.835Z,1.80
2023-05-18T09:30:53.506Z,1.65
2023-05-18T09:35:55.062Z,1.35
2023-05-18T09:40:56.593Z,2.15
2023-05-18T09:45:58.143Z,1.45
2023-05-18T09:50:59.884Z,1.25
2023-05-18T09:56:06.238Z,1.30
2023-05-18T10:01:07.872Z,1.88
2023-05-18T10:06:10.580Z,1.55
2023-05-18T10:11:12.126Z,1.40
2023-05-18T10:16:14.938Z,1.30
2023-05-18T10:21:16.500Z,2.00
2023-05-18T10:26:19.610Z,1.65
2023-05-18T10:31:21.605Z,2.58
2023-05-18T10:36:25.858Z,1.80
2023-05-18T10:41:27.399Z,1.25
2023-05-18T10:46:29.003Z,1.20
2023-05-18T10:51:31.640Z,1.67
2023-05-18T10:56:35.860Z,1.65
2023-05-18T11:01:37.644Z,1.30
2023-05-18T11:06:39.290Z,1.77
2023-05-18T11:11:51.117Z,1.88
2023-05-18T11:16:52.824Z,1.80
2023-05-18T11:21:54.528Z,1.48
2023-05-18T11:27:00.721Z,1.60
2023-05-18T11:32:02.732Z,1.50
2023-05-18T11:37:06.761Z,1.38
2023-05-18T11:42:11.895Z,1.67
2023-05-18T11:47:13.449Z,1.42
2023-05-18T11:52:33.016Z,1.33
2023-05-18T11:57:34.412Z,1.90
2023-05-18T12:02:36.106Z,2.30
2023-05-18T12:07:38.806Z,2.15
2023-05-18T12:12:41.064Z,1.85
2023-05-18T12:22:46.671Z,1.58
2023-05-18T12:27:48.700Z,1.55
2023-05-18T12:32:56.811Z,1.35
2023-05-18T12:38:00.583Z,1.50
2023-05-18T12:43:04.878Z,1.30
2023-05-18T12:48:10.974Z,1.50
2023-05-18T12:53:12.566Z,1.40
2023-05-18T12:58:16.913Z,1.40
2023-05-18T13:03:21.811Z,1.67
2023-05-18T13:08:23.925Z,1.42
2023-05-18T13:13:25.452Z,2.22
2023-05-18T13:18:27.422Z,1.85
2023-05-18T13:23:29.565Z,1.85
2023-05-18T13:28:31.240Z,1.88
2023-05-18T13:33:32.783Z,1.70
2023-05-18T13:38:36.014Z,1.45
2023-05-18T13:43:37.626Z,1.80
2023-05-18T13:48:39.248Z,1.70
2023-05-18T13:53:41.150Z,1.60
2023-05-18T13:58:43.568Z,1.92
2023-05-18T14:03:45.198Z,2.00
2023-05-18T14:08:46.787Z,1.80
2023-05-18T14:13:48.336Z,2.00
2023-05-18T14:18:49.895Z,1.67
2023-05-18T14:23:51.576Z,1.90
2023-05-18T14:28:53.111Z,1.88
2023-05-18T14:33:54.697Z,2.28
2023-05-18T14:38:56.244Z,1.40
2023-05-18T14:43:57.863Z,1.50
2023-05-18T14:48:59.405Z,1.92
2023-05-18T14:54:00.983Z,1.85
2023-05-18T14:59:02.520Z,1.98
2023-05-18T15:04:04.170Z,1.52
2023-05-18T15:09:06.413Z,2.53
2023-05-18T15:14:08.055Z,1.80
2023-05-18T15:19:09.637Z,1.50
2023-05-18T15:24:11.279Z,2.08
2023-05-18T15:29:12.834Z,1.60
2023-05-18T15:34:14.370Z,1.80
2023-05-18T15:39:15.928Z,1.80
2023-05-18T15:44:17.513Z,1.60
2023-05-18T15:49:21.101Z,2.10
2023-05-18T15:54:22.693Z,2.10
2023-05-18T15:59:24.238Z,2.22
2023-05-18T16:04:25.865Z,1.70
2023-05-18T16:09:27.432Z,1.98
2023-05-18T16:14:29.023Z,2.38
2023-05-18T16:19:30.741Z,2.42
2023-05-18T16:24:32.369Z,1.60
2023-05-18T16:29:33.953Z,2.05
2023-05-18T16:34:35.484Z,2.58
2023-05-18T16:39:37.050Z,1.75
2023-05-18T16:44:38.603Z,1.65
2023-05-18T16:49:40.198Z,1.80
2023-05-18T16:54:41.883Z,1.73
2023-05-18T16:59:43.408Z,1.92
2023-05-18T17:04:49.701Z,1.70
2023-05-18T17:09:51.567Z,1.65
2023-05-18T17:14:53.094Z,1.65
2023-05-18T17:19:54.800Z,2.13
2023-05-18T17:24:56.338Z,2.05
2023-05-18T17:29:58.002Z,2.40
2023-05-18T17:34:59.566Z,1.52
2023-05-18T17:40:01.106Z,2.40
2023-05-18T17:45:02.678Z,2.10
2023-05-18T17:50:04.563Z,2.22
2023-05-18T17:55:06.608Z,2.35
2023-05-18T18:00:10.136Z,2.80
2023-05-18T18:05:11.711Z,4.28
2023-05-18T18:10:13.276Z,2.83
2023-05-18T18:15:14.826Z,2.47
2023-05-18T18:20:16.377Z,1.80
2023-05-18T18:25:18.013Z,2.33
2023-05-18T18:30:19.554Z,2.80
2023-05-18T18:35:21.329Z,3.40
2023-05-18T18:40:22.921Z,2.40
2023-05-18T18:45:24.485Z,2.05
2023-05-18T18:50:26.478Z,2.15
2023-05-18T18:55:28.066Z,1.88
2023-05-18T19:00:29.693Z,1.92
2023-05-18T19:05:31.906Z,2.17
2023-05-18T19:10:34.372Z,1.90
2023-05-18T19:15:36.561Z,2.35
2023-05-18T19:20:38.156Z,2.10
2023-05-18T19:25:39.699Z,2.00
2023-05-18T19:30:41.241Z,2.53
2023-05-18T19:35:42.824Z,2.67
2023-05-18T19:40:44.349Z,1.95
2023-05-18T19:45:46.022Z,2.30
2023-05-18T19:50:47.625Z,2.30
2023-05-18T19:55:49.500Z,2.20
2023-05-18T20:00:52.694Z,2.08
2023-05-18T20:05:56.099Z,1.92
2023-05-18T20:10:58.693Z,1.73
2023-05-18T20:21:02.092Z,1.77
2023-05-18T20:26:05.553Z,1.90
2023-05-18T20:31:07.134Z,2.45
2023-05-18T20:36:09.123Z,2.00
2023-05-18T20:41:10.731Z,2.30
2023-05-18T20:46:15.702Z,2.63
2023-05-18T20:51:18.835Z,3.17
2023-05-18T20:56:21.934Z,1.90
2023-05-18T21:01:23.891Z,2.58
2023-05-18T21:06:25.556Z,2.70
2023-05-18T21:11:27.182Z,2.35
2023-05-18T21:16:28.753Z,2.33
2023-05-18T21:21:31.672Z,2.85
2023-05-18T21:26:33.224Z,2.35
2023-05-18T21:31:34.871Z,2.08
2023-05-18T21:36:36.493Z,3.17
2023-05-18T21:41:42.325Z,2.17
2023-05-18T21:46:43.893Z,2.63
2023-05-18T21:51:45.439Z,2.33
2023-05-18T21:56:46.987Z,2.90
2023-05-18T22:01:48.517Z,2.55
2023-05-18T22:06:52.994Z,2.28
2023-05-18T22:11:54.586Z,1.77
2023-05-18T22:16:56.150Z,2.95
2023-05-18T22:21:57.744Z,2.65
2023-05-18T22:26:59.301Z,2.20
2023-05-18T22:32:01.059Z,1.83
2023-05-18T22:37:02.629Z,2.53
2023-05-18T22:42:04.247Z,2.50
2023-05-18T22:47:06.058Z,2.38
2023-05-18T22:52:08.202Z,2.30
2023-05-18T22:57:09.753Z,2.53
2023-05-18T23:02:11.426Z,3.20
2023-05-18T23:07:13.654Z,2.65
2023-05-18T23:12:15.183Z,3.00
2023-05-18T23:17:22.740Z,1.98
2023-05-18T23:22:25.092Z,2.50
2023-05-18T23:27:26.636Z,2.22
2023-05-18T23:32:28.668Z,2.90
2023-05-18T23:37:31.782Z,2.60
2023-05-18T23:42:33.568Z,2.85
2023-05-18T23:47:35.768Z,2.63
2023-05-18T23:52:37.324Z,3.28
2023-05-18T23:57:39.115Z,3.22
